Terminal Aerodrome Forecast
Issued by NWS

Home | Current Version | Previous Version | Text Only | Print | Product List | Glossary On
Versions: 1 2 3 4 5 6 7 8 9 10 11 12 13 14 15 16 17
782
FTUS44 KOHX 241720
TAFCKV
TAF
KCKV 241720Z 2418/2518 22005KT P6SM SCT040 BKN250
     FM250900 04002KT 4SM BR SCT250
     FM251400 08004KT P6SM SCT250=

USA.gov is the U.S. government's official web portal to all federal, state and local government web resources and services.